Time;durP1;ratioP1;P1;durP2;ratioP2;P2;SDS_P1;SDS_P2;PMS_P1;PMS_P2;Temp;Humidity;BMP_temperature;BMP_pressure;BME280_temperature;BME280_humidity;BME280_pressure;Samples;Min_cycle;Max_cycle;Signal;HPM_P1;HPM_P2
2022/12/20 00:02:01;;;;;;;5.25;0.88;;;;;;;;;;4919929;29;20027;-90
2022/12/20 00:04:26;;;;;;;11.02;2.35;;;;;;;;;;4906294;29;20059;-89
2022/12/20 00:06:52;;;;;;;6.55;1.52;;;;;;;;;;4908064;29;20111;-89
2022/12/20 00:09:17;;;;;;;5.45;1.20;;;;;;;;;;4904951;29;20028;-90
2022/12/20 00:11:42;;;;;;;7.68;1.30;;;;;;;;;;4918642;29;20911;-89
2022/12/20 00:14:08;;;;;;;6.45;1.52;;;;;;;;;;4904674;29;20025;-89
2022/12/20 00:16:34;;;;;;;4.60;1.02;;;;;;;;;;4924138;29;20493;-88
2022/12/20 00:19:00;;;;;;;5.57;1.00;;;;;;;;;;4922015;29;20072;-90
2022/12/20 00:21:26;;;;;;;5.75;1.10;;;;;;;;;;4924924;29;20480;-89
2022/12/20 00:23:52;;;;;;;6.07;1.30;;;;;;;;;;4920739;29;20040;-89
2022/12/20 00:26:19;;;;;;;4.22;0.88;;;;;;;;;;4921416;29;20028;-89
2022/12/20 00:28:44;;;;;;;7.60;1.20;;;;;;;;;;4905205;29;20120;-88
2022/12/20 00:31:11;;;;;;;4.03;0.93;;;;;;;;;;4907343;29;20055;-89
2022/12/20 00:36:34;;;;;;;9.32;1.30;;;;;;;;;;4905841;29;20091;-89
2022/12/20 00:38:59;;;;;;;6.20;1.20;;;;;;;;;;4903940;29;20033;-89
2022/12/20 00:41:29;;;;;;;6.97;1.30;;;;;;;;;;4909985;29;20055;-89
2022/12/20 00:43:54;;;;;;;4.82;1.00;;;;;;;;;;4906231;29;20032;-88
2022/12/20 00:46:22;;;;;;;4.85;1.17;;;;;;;;;;4903565;29;20080;-89
2022/12/20 00:48:47;;;;;;;9.80;1.50;;;;;;;;;;4904937;29;21421;-89
2022/12/20 00:51:14;;;;;;;6.60;1.20;;;;;;;;;;4907850;29;20594;-89
2022/12/20 00:53:40;;;;;;;6.30;1.08;;;;;;;;;;4904187;29;20054;-89
2022/12/20 00:56:06;;;;;;;4.82;1.02;;;;;;;;;;4919882;29;20798;-89
2022/12/20 00:58:32;;;;;;;8.13;1.10;;;;;;;;;;4918729;29;20040;-89
2022/12/20 01:00:58;;;;;;;9.25;1.90;;;;;;;;;;4904888;29;20028;-89
2022/12/20 01:03:25;;;;;;;4.32;1.00;;;;;;;;;;4904409;29;20040;-89
2022/12/20 01:05:51;;;;;;;6.32;1.27;;;;;;;;;;4906166;29;20035;-89
2022/12/20 01:08:17;;;;;;;6.85;1.55;;;;;;;;;;4904915;29;20051;-89
2022/12/20 01:10:42;;;;;;;10.07;1.77;;;;;;;;;;4903826;29;20487;-88
2022/12/20 01:13:07;;;;;;;8.15;1.38;;;;;;;;;;4904993;29;20028;-89
2022/12/20 01:15:33;;;;;;;6.35;1.38;;;;;;;;;;4904264;29;20039;-89
2022/12/20 01:17:58;;;;;;;8.50;1.70;;;;;;;;;;4905999;29;20131;-89
2022/12/20 01:20:23;;;;;;;9.32;1.50;;;;;;;;;;4904860;29;20159;-89
2022/12/20 01:22:49;;;;;;;6.22;1.60;;;;;;;;;;4906495;29;20020;-89
2022/12/20 01:25:15;;;;;;;7.43;1.60;;;;;;;;;;4906541;29;20024;-90
2022/12/20 01:27:40;;;;;;;7.47;1.45;;;;;;;;;;4905046;29;20028;-89
2022/12/20 01:30:06;;;;;;;8.18;1.13;;;;;;;;;;4905464;29;20028;-88
2022/12/20 01:32:31;;;;;;;5.80;0.80;;;;;;;;;;4904066;29;20023;-89
2022/12/20 01:34:56;;;;;;;7.40;1.27;;;;;;;;;;4904935;29;20035;-88
2022/12/20 01:37:21;;;;;;;5.90;1.02;;;;;;;;;;4906891;29;20028;-89
2022/12/20 01:39:47;;;;;;;3.88;0.80;;;;;;;;;;4906367;29;20036;-90
2022/12/20 01:42:15;;;;;;;10.90;1.35;;;;;;;;;;4905945;29;20408;-88
2022/12/20 01:44:40;;;;;;;3.70;0.75;;;;;;;;;;4905371;29;20027;-90
2022/12/20 01:47:06;;;;;;;4.13;0.90;;;;;;;;;;4906889;29;20035;-89
2022/12/20 01:49:34;;;;;;;5.65;1.05;;;;;;;;;;4906166;29;20043;-89
2022/12/20 01:52:38;;;;;;;5.97;1.10;;;;;;;;;;4904434;29;21275;-90
2022/12/20 01:55:07;;;;;;;3.38;0.55;;;;;;;;;;4853520;29;20044;-89
2022/12/20 01:57:38;;;;;;;4.63;0.57;;;;;;;;;;4859974;29;20112;-89
2022/12/20 02:00:04;;;;;;;5.53;1.08;;;;;;;;;;4852063;29;20056;-89
2022/12/20 02:02:30;;;;;;;4.70;0.70;;;;;;;;;;4856622;29;21215;-89
2022/12/20 02:04:56;;;;;;;3.55;0.80;;;;;;;;;;4858253;29;20108;-89
2022/12/20 02:07:24;;;;;;;6.72;0.95;;;;;;;;;;4855110;29;20494;-89
2022/12/20 02:09:50;;;;;;;4.68;0.80;;;;;;;;;;4857524;29;20152;-89
2022/12/20 02:12:20;;;;;;;7.18;0.70;;;;;;;;;;4861797;29;20093;-89
2022/12/20 02:14:48;;;;;;;3.88;0.63;;;;;;;;;;4858292;29;20579;-89
2022/12/20 02:17:28;;;;;;;6.45;1.00;;;;;;;;;;4854239;29;20042;-89
2022/12/20 02:19:53;;;;;;;6.20;1.00;;;;;;;;;;4845606;29;20033;-89
2022/12/20 02:22:28;;;;;;;5.30;0.88;;;;;;;;;;4845887;29;20038;-89
2022/12/20 02:25:00;;;;;;;5.32;0.80;;;;;;;;;;4859845;29;20590;-89
2022/12/20 02:27:42;;;;;;;6.45;0.90;;;;;;;;;;4912097;29;20122;-88
2022/12/20 02:30:18;;;;;;;4.45;0.60;;;;;;;;;;4926467;29;20024;-90
2022/12/20 02:32:47;;;;;;;5.47;0.80;;;;;;;;;;4905625;29;20035;-88
2022/12/20 02:35:13;;;;;;;6.13;0.82;;;;;;;;;;4909052;29;20114;-89
2022/12/20 02:37:49;;;;;;;4.97;0.90;;;;;;;;;;4928290;29;20134;-89
2022/12/20 02:40:16;;;;;;;3.90;0.85;;;;;;;;;;4908987;29;20032;-89
2022/12/20 02:42:42;;;;;;;6.00;0.75;;;;;;;;;;4909528;29;20039;-89
2022/12/20 02:45:15;;;;;;;4.63;0.80;;;;;;;;;;4909807;29;20131;-89
2022/12/20 02:47:43;;;;;;;6.97;0.90;;;;;;;;;;4907694;29;20040;-89
2022/12/20 02:50:09;;;;;;;8.65;1.13;;;;;;;;;;4909898;29;20116;-90
2022/12/20 02:52:35;;;;;;;4.50;0.82;;;;;;;;;;4910569;29;20074;-89
2022/12/20 02:55:02;;;;;;;7.55;1.30;;;;;;;;;;4908636;29;20092;-89
2022/12/20 02:57:36;;;;;;;6.13;0.90;;;;;;;;;;4907011;29;20037;-89
2022/12/20 03:00:07;;;;;;;5.90;0.65;;;;;;;;;;4921362;29;20065;-89
2022/12/20 03:05:21;;;;;;;6.88;0.98;;;;;;;;;;4947922;29;20118;-93
2022/12/20 03:07:46;;;;;;;7.20;0.73;;;;;;;;;;4944635;28;20019;-93
2022/12/20 03:10:12;;;;;;;5.78;0.80;;;;;;;;;;4947342;28;20090;-93
2022/12/20 03:12:37;;;;;;;9.35;0.90;;;;;;;;;;4946406;28;20446;-93
2022/12/20 03:15:02;;;;;;;5.85;0.88;;;;;;;;;;4944294;29;20023;-93
2022/12/20 03:17:31;;;;;;;6.20;0.95;;;;;;;;;;4949586;28;20038;-93
2022/12/20 03:19:56;;;;;;;9.48;1.00;;;;;;;;;;4944031;29;20031;-94
2022/12/20 03:22:22;;;;;;;5.05;0.90;;;;;;;;;;4945487;29;20115;-93
2022/12/20 03:24:48;;;;;;;7.15;0.82;;;;;;;;;;4948739;29;20024;-94
2022/12/20 03:27:13;;;;;;;7.47;0.93;;;;;;;;;;4943299;29;20027;-94
2022/12/20 03:29:38;;;;;;;8.15;0.98;;;;;;;;;;4947845;29;20553;-93
2022/12/20 03:32:04;;;;;;;5.38;0.95;;;;;;;;;;4949941;29;20043;-93
2022/12/20 03:34:29;;;;;;;5.35;1.00;;;;;;;;;;4951095;29;20505;-94
2022/12/20 03:36:54;;;;;;;6.85;0.90;;;;;;;;;;4951805;29;20078;-95
2022/12/20 03:39:20;;;;;;;4.18;0.65;;;;;;;;;;4952098;29;20054;-94
2022/12/20 03:41:45;;;;;;;7.30;1.10;;;;;;;;;;4951799;29;20019;-94
2022/12/20 03:44:10;;;;;;;7.60;0.90;;;;;;;;;;4950615;29;20390;-93
2022/12/20 03:46:39;;;;;;;5.40;0.90;;;;;;;;;;4955927;29;20058;-93
2022/12/20 03:49:04;;;;;;;11.13;1.10;;;;;;;;;;4945486;28;20027;-92
2022/12/20 03:51:29;;;;;;;7.10;1.00;;;;;;;;;;4946770;29;20510;-93
2022/12/20 03:53:55;;;;;;;9.15;1.00;;;;;;;;;;4959105;28;20095;-93
2022/12/20 03:56:23;;;;;;;5.78;0.77;;;;;;;;;;4941021;28;20028;-93
2022/12/20 03:58:48;;;;;;;11.10;1.33;;;;;;;;;;4950958;29;20027;-92
2022/12/20 04:01:21;;;;;;;10.68;1.35;;;;;;;;;;4943322;29;20527;-93
2022/12/20 04:03:47;;;;;;;11.30;1.45;;;;;;;;;;4939208;29;20050;-93
2022/12/20 04:06:15;;;;;;;9.60;1.17;;;;;;;;;;4947956;29;20359;-93
2022/12/20 04:08:40;;;;;;;9.90;1.40;;;;;;;;;;4951067;29;20039;-94
2022/12/20 04:11:18;;;;;;;9.55;2.10;;;;;;;;;;4935837;29;20043;-93
2022/12/20 04:13:47;;;;;;;7.57;2.00;;;;;;;;;;4932546;29;20027;-93
2022/12/20 04:16:14;;;;;;;11.40;2.53;;;;;;;;;;4941426;29;20035;-93
2022/12/20 04:18:40;;;;;;;13.23;2.17;;;;;;;;;;4946388;28;20047;-93
2022/12/20 04:21:06;;;;;;;11.55;2.30;;;;;;;;;;4944330;28;20098;-93
2022/12/20 04:23:34;;;;;;;9.82;1.75;;;;;;;;;;4950281;29;20035;-94
2022/12/20 04:26:00;;;;;;;7.68;1.40;;;;;;;;;;4951408;28;20031;-94
2022/12/20 04:28:26;;;;;;;12.75;1.70;;;;;;;;;;4948883;28;20110;-94
2022/12/20 04:30:51;;;;;;;8.93;1.48;;;;;;;;;;4950824;29;20042;-92
2022/12/20 04:33:19;;;;;;;8.88;1.80;;;;;;;;;;4947893;29;20089;-94
2022/12/20 04:35:45;;;;;;;13.00;1.88;;;;;;;;;;4944344;29;20019;-93
2022/12/20 04:38:10;;;;;;;8.95;1.50;;;;;;;;;;4951210;28;20111;-96
2022/12/20 04:40:35;;;;;;;13.43;1.60;;;;;;;;;;4937537;29;20098;-93
2022/12/20 04:43:10;;;;;;;5.10;1.45;;;;;;;;;;4948969;28;20034;-94
2022/12/20 04:45:36;;;;;;;7.38;1.42;;;;;;;;;;4948096;29;20019;-95
2022/12/20 04:48:01;;;;;;;8.10;1.38;;;;;;;;;;4942231;29;20035;-94
2022/12/20 04:50:29;;;;;;;9.73;1.92;;;;;;;;;;4947741;28;20026;-95
2022/12/20 04:55:39;;;;;;;7.10;1.40;;;;;;;;;;4948574;28;20058;-94
2022/12/20 04:58:04;;;;;;;6.55;1.02;;;;;;;;;;4946240;29;20466;-94
2022/12/20 05:00:31;;;;;;;6.13;1.10;;;;;;;;;;4944808;29;20079;-94
2022/12/20 05:02:56;;;;;;;10.93;1.40;;;;;;;;;;4946639;29;20047;-95
2022/12/20 05:05:21;;;;;;;8.00;1.00;;;;;;;;;;4944753;29;20041;-93
2022/12/20 05:07:47;;;;;;;7.28;1.13;;;;;;;;;;4946112;29;20057;-93
2022/12/20 05:10:14;;;;;;;11.25;1.65;;;;;;;;;;4944110;29;20042;-94
2022/12/20 05:12:40;;;;;;;6.93;1.17;;;;;;;;;;4937324;29;20133;-93
2022/12/20 05:15:06;;;;;;;6.25;1.30;;;;;;;;;;4941386;29;20586;-92
2022/12/20 05:17:31;;;;;;;8.88;1.42;;;;;;;;;;4947404;28;20027;-92
2022/12/20 05:19:57;;;;;;;8.82;1.35;;;;;;;;;;4948671;28;20135;-93
2022/12/20 05:27:52;;;;;;;7.47;1.20;;;;;;;;;;4943486;29;20097;-93
2022/12/20 05:30:17;;;;;;;9.32;1.60;;;;;;;;;;4948930;29;20031;-92
2022/12/20 05:32:43;;;;;;;5.65;1.15;;;;;;;;;;4943419;28;20019;-94
2022/12/20 05:35:08;;;;;;;7.50;1.10;;;;;;;;;;4950170;29;20494;-93
2022/12/20 05:37:33;;;;;;;6.93;1.30;;;;;;;;;;4950496;29;20035;-93
2022/12/20 05:39:59;;;;;;;11.15;1.02;;;;;;;;;;4949886;29;20027;-93
2022/12/20 05:42:24;;;;;;;8.43;1.52;;;;;;;;;;4947381;29;20043;-93
2022/12/20 05:44:50;;;;;;;9.52;1.05;;;;;;;;;;4936129;29;20056;-92
2022/12/20 05:47:15;;;;;;;7.53;1.17;;;;;;;;;;4943959;29;20146;-93
2022/12/20 05:49:42;;;;;;;10.25;1.45;;;;;;;;;;4943466;28;20034;-93
2022/12/20 05:52:08;;;;;;;7.43;0.93;;;;;;;;;;4942906;29;20158;-93
2022/12/20 05:54:33;;;;;;;13.15;1.30;;;;;;;;;;4944751;29;20490;-92
2022/12/20 05:56:58;;;;;;;7.23;1.23;;;;;;;;;;4946354;28;20023;-93
2022/12/20 05:59:23;;;;;;;5.55;0.95;;;;;;;;;;4944004;29;20269;-93
2022/12/20 06:01:49;;;;;;;8.13;1.17;;;;;;;;;;4942759;29;20031;-93
2022/12/20 06:04:14;;;;;;;7.32;1.08;;;;;;;;;;4946836;29;20098;-93
2022/12/20 06:06:41;;;;;;;8.45;1.20;;;;;;;;;;4942861;29;20078;-94
2022/12/20 06:09:06;;;;;;;5.90;1.17;;;;;;;;;;4944510;29;20050;-93
2022/12/20 06:11:32;;;;;;;8.88;1.27;;;;;;;;;;4944758;28;20067;-95
2022/12/20 06:13:58;;;;;;;6.30;0.88;;;;;;;;;;4946103;28;20031;-93
2022/12/20 06:16:26;;;;;;;7.10;1.55;;;;;;;;;;4942965;29;20050;-93
2022/12/20 06:18:52;;;;;;;6.70;0.93;;;;;;;;;;4947090;28;20031;-94
2022/12/20 06:21:17;;;;;;;7.93;1.33;;;;;;;;;;4944761;29;20733;-93
2022/12/20 06:23:43;;;;;;;6.65;0.88;;;;;;;;;;4948223;29;20047;-93
2022/12/20 06:26:08;;;;;;;7.65;1.00;;;;;;;;;;4944491;28;20023;-94
2022/12/20 06:28:41;;;;;;;9.55;0.93;;;;;;;;;;4962056;28;20124;-94
2022/12/20 06:31:07;;;;;;;7.30;1.27;;;;;;;;;;4946755;29;20051;-93
2022/12/20 06:33:33;;;;;;;7.88;1.48;;;;;;;;;;4951129;28;20038;-92
2022/12/20 06:35:58;;;;;;;8.32;1.65;;;;;;;;;;4947599;29;20027;-93
2022/12/20 06:38:25;;;;;;;10.00;1.40;;;;;;;;;;4947586;28;20714;-93
2022/12/20 06:40:50;;;;;;;11.70;1.48;;;;;;;;;;4944999;29;20227;-92
2022/12/20 06:43:16;;;;;;;13.13;1.58;;;;;;;;;;4948025;28;20574;-93
2022/12/20 06:45:50;;;;;;;6.60;1.38;;;;;;;;;;4950817;29;20656;-94
2022/12/20 06:48:15;;;;;;;11.95;1.30;;;;;;;;;;4945387;29;20031;-93
2022/12/20 06:50:41;;;;;;;12.40;1.60;;;;;;;;;;4952836;29;20039;-94
2022/12/20 06:53:07;;;;;;;9.82;1.60;;;;;;;;;;4951013;29;20045;-94
2022/12/20 06:55:32;;;;;;;8.25;1.30;;;;;;;;;;4946912;28;20030;-94
2022/12/20 06:57:57;;;;;;;12.23;1.90;;;;;;;;;;4949493;29;20697;-94
2022/12/20 07:00:23;;;;;;;10.35;1.80;;;;;;;;;;4949774;29;20816;-94
2022/12/20 07:02:56;;;;;;;9.50;1.85;;;;;;;;;;4946089;29;20611;-94
2022/12/20 07:05:22;;;;;;;15.18;1.90;;;;;;;;;;4946610;29;20038;-95
2022/12/20 07:07:50;;;;;;;14.77;2.33;;;;;;;;;;4941352;29;20031;-94
2022/12/20 07:10:16;;;;;;;12.50;2.10;;;;;;;;;;4949116;29;20166;-94
2022/12/20 07:12:41;;;;;;;12.43;2.15;;;;;;;;;;4945957;29;20944;-94
2022/12/20 07:15:10;;;;;;;18.13;2.78;;;;;;;;;;4946485;29;20030;-95
2022/12/20 07:17:35;;;;;;;12.68;2.10;;;;;;;;;;4943206;28;20051;-95
2022/12/20 07:20:03;;;;;;;17.98;2.22;;;;;;;;;;4948329;28;20047;-95
2022/12/20 07:22:32;;;;;;;15.38;2.58;;;;;;;;;;4943420;29;20031;-95
2022/12/20 07:24:57;;;;;;;16.55;2.30;;;;;;;;;;4939909;29;20027;-94
2022/12/20 07:27:22;;;;;;;10.75;2.33;;;;;;;;;;4945488;29;20027;-94
2022/12/20 07:29:48;;;;;;;15.48;2.22;;;;;;;;;;4934535;29;20080;-93
2022/12/20 07:32:21;;;;;;;14.02;1.90;;;;;;;;;;4937942;28;20032;-94
2022/12/20 07:34:46;;;;;;;13.43;2.00;;;;;;;;;;4949914;28;20023;-93
2022/12/20 07:37:12;;;;;;;15.52;2.25;;;;;;;;;;4949514;29;20183;-94
2022/12/20 07:39:37;;;;;;;11.02;1.67;;;;;;;;;;4953618;28;20042;-93
2022/12/20 07:42:03;;;;;;;16.42;1.83;;;;;;;;;;4947329;29;20760;-94
2022/12/20 07:44:29;;;;;;;14.77;1.80;;;;;;;;;;4937485;29;20487;-93
2022/12/20 07:46:54;;;;;;;8.77;1.45;;;;;;;;;;4960990;28;20028;-93
2022/12/20 07:49:20;;;;;;;16.85;2.25;;;;;;;;;;4951008;29;20095;-93
2022/12/20 07:51:50;;;;;;;20.08;2.00;;;;;;;;;;4941569;29;20015;-93
2022/12/20 07:54:39;;;;;;;11.70;1.67;;;;;;;;;;4937236;29;21151;-93
2022/12/20 07:57:09;;;;;;;48.72;5.60;;;;;;;;;;4930769;29;20046;-92
2022/12/20 07:59:45;;;;;;;12.38;1.90;;;;;;;;;;4946816;29;20151;-93
2022/12/20 08:02:24;;;;;;;8.85;1.80;;;;;;;;;;4945200;28;20033;-93
2022/12/20 08:04:58;;;;;;;18.23;3.08;;;;;;;;;;4950116;28;20098;-93
2022/12/20 08:07:43;;;;;;;;;;;;;;;;;;;;;
2022/12/20 08:10:18;;;;;;;15.85;2.03;;;;;;;;;;4942659;28;20043;-93
2022/12/20 08:12:52;;;;;;;13.70;2.05;;;;;;;;;;4944578;29;20035;-94
2022/12/20 08:15:20;;;;;;;27.52;2.80;;;;;;;;;;4945521;29;20479;-94
2022/12/20 08:17:49;;;;;;;10.93;1.90;;;;;;;;;;4948706;29;20029;-94
2022/12/20 08:20:28;;;;;;;;;;;;;;;;;;;;;
2022/12/20 08:23:26;;;;;;;13.57;2.47;;;;;;;;;;4937688;29;20036;-92
2022/12/20 08:25:55;;;;;;;17.38;2.13;;;;;;;;;;4937337;29;20039;-93
2022/12/20 08:28:25;;;;;;;17.20;2.17;;;;;;;;;;4941940;29;20039;-93
2022/12/20 08:30:50;;;;;;;14.45;2.72;;;;;;;;;;4941282;29;20483;-92
2022/12/20 08:33:19;;;;;;;13.38;1.83;;;;;;;;;;4934943;29;20020;-95
2022/12/20 08:36:07;;;;;;;;;;;;;;;;;;;;;
2022/12/20 08:38:33;;;;;;;12.07;2.05;;;;;;;;;;4941646;28;20032;-91
2022/12/20 08:41:03;;;;;;;12.05;1.73;;;;;;;;;;4926768;29;20034;-89
2022/12/20 08:43:29;;;;;;;16.35;2.20;;;;;;;;;;4939264;28;20074;-90
2022/12/20 08:45:54;;;;;;;13.73;2.03;;;;;;;;;;4936770;29;20576;-89
2022/12/20 08:48:20;;;;;;;12.35;2.10;;;;;;;;;;4942737;28;20027;-90
2022/12/20 08:50:45;;;;;;;12.25;1.80;;;;;;;;;;4940756;29;20439;-92
2022/12/20 08:53:11;;;;;;;13.15;1.95;;;;;;;;;;4943974;28;20020;-91
2022/12/20 08:55:36;;;;;;;13.98;1.80;;;;;;;;;;4941058;28;20494;-90
2022/12/20 08:58:02;;;;;;;14.65;2.15;;;;;;;;;;4943693;29;20078;-93
2022/12/20 09:00:28;;;;;;;11.15;1.85;;;;;;;;;;4936563;29;20035;-89
2022/12/20 09:02:54;;;;;;;10.82;1.60;;;;;;;;;;4943983;28;20062;-88
2022/12/20 09:05:19;;;;;;;19.27;2.08;;;;;;;;;;4940940;29;20031;-89
2022/12/20 09:07:44;;;;;;;16.80;2.60;;;;;;;;;;4940640;28;20027;-88
2022/12/20 09:10:10;;;;;;;20.52;3.95;;;;;;;;;;4942323;29;20020;-89
2022/12/20 09:12:36;;;;;;;14.80;2.15;;;;;;;;;;4943380;28;20047;-88
2022/12/20 09:15:01;;;;;;;14.25;2.10;;;;;;;;;;4942226;28;20137;-89
2022/12/20 09:17:27;;;;;;;19.15;3.30;;;;;;;;;;4947708;28;20154;-90
2022/12/20 09:19:54;;;;;;;14.57;2.17;;;;;;;;;;4938962;28;20042;-90
2022/12/20 09:22:19;;;;;;;17.85;2.50;;;;;;;;;;4935190;28;20190;-90
2022/12/20 09:24:44;;;;;;;13.50;2.17;;;;;;;;;;4942884;28;20554;-90
2022/12/20 09:27:10;;;;;;;17.30;3.28;;;;;;;;;;4936128;28;20495;-90
2022/12/20 09:29:35;;;;;;;23.10;2.08;;;;;;;;;;4947075;28;20110;-90
2022/12/20 09:32:00;;;;;;;14.32;2.03;;;;;;;;;;4937584;29;20020;-89
2022/12/20 09:34:26;;;;;;;12.30;2.17;;;;;;;;;;4943472;28;20132;-90
2022/12/20 09:36:51;;;;;;;17.58;2.42;;;;;;;;;;4942662;28;20020;-89
2022/12/20 09:39:16;;;;;;;18.52;2.30;;;;;;;;;;4942914;29;20063;-91
2022/12/20 09:41:43;;;;;;;14.05;2.15;;;;;;;;;;4944685;29;20486;-91
2022/12/20 09:44:20;;;;;;;13.65;1.88;;;;;;;;;;4946232;29;20039;-91
2022/12/20 09:46:49;;;;;;;17.73;2.88;;;;;;;;;;4932375;29;20081;-91
2022/12/20 09:49:16;;;;;;;14.18;2.20;;;;;;;;;;4941367;28;20499;-90
2022/12/20 09:51:45;;;;;;;20.33;2.78;;;;;;;;;;4944158;29;20032;-91
2022/12/20 09:54:13;;;;;;;18.20;2.50;;;;;;;;;;4946098;29;20117;-90
2022/12/20 09:56:42;;;;;;;13.57;2.28;;;;;;;;;;4934734;29;20573;-92
2022/12/20 09:59:12;;;;;;;14.65;2.42;;;;;;;;;;4938189;29;20506;-91
2022/12/20 10:01:38;;;;;;;18.85;2.22;;;;;;;;;;4933768;28;20027;-90
2022/12/20 10:04:05;;;;;;;16.10;2.25;;;;;;;;;;4938066;28;20050;-90
2022/12/20 10:06:30;;;;;;;18.00;2.70;;;;;;;;;;4941004;28;20034;-91
2022/12/20 10:08:55;;;;;;;17.50;2.35;;;;;;;;;;4937373;29;20399;-90
2022/12/20 10:11:32;;;;;;;16.77;2.90;;;;;;;;;;4931910;29;20031;-91
2022/12/20 10:14:13;;;;;;;18.13;2.17;;;;;;;;;;4930618;29;20052;-88
2022/12/20 10:16:43;;;;;;;12.70;2.20;;;;;;;;;;4934878;29;20031;-89
2022/12/20 10:19:11;;;;;;;18.80;2.97;;;;;;;;;;4936878;28;20023;-89
2022/12/20 10:21:37;;;;;;;18.75;2.80;;;;;;;;;;4949495;28;20042;-94
2022/12/20 10:24:04;;;;;;;11.23;1.88;;;;;;;;;;4933479;29;23050;-89
2022/12/20 10:26:31;;;;;;;18.23;2.45;;;;;;;;;;4937336;29;20111;-89
2022/12/20 10:29:16;;;;;;;16.08;2.47;;;;;;;;;;4945468;28;21784;-89
2022/12/20 10:31:41;;;;;;;18.38;2.42;;;;;;;;;;4941969;29;20620;-90
2022/12/20 10:34:10;;;;;;;19.20;2.35;;;;;;;;;;4938731;28;20043;-89
2022/12/20 10:36:35;;;;;;;14.65;2.72;;;;;;;;;;4936317;28;20051;-90
2022/12/20 10:39:06;;;;;;;15.00;1.90;;;;;;;;;;4942225;29;20216;-89
2022/12/20 10:41:43;;;;;;;13.98;2.05;;;;;;;;;;4949372;28;20067;-91
2022/12/20 10:44:13;;;;;;;19.58;2.67;;;;;;;;;;4941863;28;20030;-91
2022/12/20 10:46:44;;;;;;;15.25;2.92;;;;;;;;;;4947231;28;20031;-92
2022/12/20 10:49:22;;;;;;;14.40;2.22;;;;;;;;;;4952281;28;20062;-91
2022/12/20 10:51:54;;;;;;;18.50;2.22;;;;;;;;;;4960649;28;20093;-91
2022/12/20 10:54:27;;;;;;;15.73;3.05;;;;;;;;;;4938856;28;20055;-93
2022/12/20 10:56:57;;;;;;;14.65;2.10;;;;;;;;;;4947424;28;20023;-87
2022/12/20 10:59:30;;;;;;;19.17;2.63;;;;;;;;;;4943322;28;20039;-88
2022/12/20 11:01:56;;;;;;;15.95;2.15;;;;;;;;;;4941135;28;20028;-91
2022/12/20 11:04:32;;;;;;;12.75;2.08;;;;;;;;;;4939702;28;20054;-90
2022/12/20 11:06:58;;;;;;;16.85;2.70;;;;;;;;;;4942153;28;20114;-90
2022/12/20 11:09:27;;;;;;;12.13;2.15;;;;;;;;;;4939487;28;20031;-89
2022/12/20 11:11:59;;;;;;;14.65;2.38;;;;;;;;;;4942033;28;20098;-89
2022/12/20 11:14:25;;;;;;;17.57;2.43;;;;;;;;;;4946665;28;20019;-90
2022/12/20 11:16:52;;;;;;;21.27;2.72;;;;;;;;;;4943760;28;20647;-90
2022/12/20 11:19:19;;;;;;;11.75;2.00;;;;;;;;;;4944783;28;20102;-90
2022/12/20 11:22:04;;;;;;;11.88;1.75;;;;;;;;;;4939122;28;20031;-89
2022/12/20 11:24:30;;;;;;;18.23;2.38;;;;;;;;;;4922097;28;20071;-89
2022/12/20 11:27:13;;;;;;;20.05;2.67;;;;;;;;;;4945883;28;20035;-89
2022/12/20 11:29:57;;;;;;;12.10;1.95;;;;;;;;;;4941087;28;20541;-91
2022/12/20 11:32:41;;;;;;;14.35;2.08;;;;;;;;;;4940376;28;20047;-89
2022/12/20 11:35:15;;;;;;;21.05;2.22;;;;;;;;;;4941436;28;20049;-90
2022/12/20 11:37:43;;;;;;;17.95;2.88;;;;;;;;;;4941235;28;20769;-90
2022/12/20 11:40:17;;;;;;;21.70;2.50;;;;;;;;;;4949426;28;20126;-93
2022/12/20 11:42:43;;;;;;;14.25;2.05;;;;;;;;;;4957277;28;20034;-92
2022/12/20 11:45:20;;;;;;;18.13;2.38;;;;;;;;;;4960472;28;20077;-92
2022/12/20 11:48:04;;;;;;;11.93;1.73;;;;;;;;;;4955773;28;20043;-89
2022/12/20 11:50:30;;;;;;;12.45;2.00;;;;;;;;;;4946461;28;20139;-90
2022/12/20 11:53:13;;;;;;;16.25;2.72;;;;;;;;;;4951376;28;20046;-91
2022/12/20 11:55:43;;;;;;;15.43;2.70;;;;;;;;;;4945566;28;20080;-92
2022/12/20 11:58:17;;;;;;;15.35;2.50;;;;;;;;;;4948417;28;20027;-92
2022/12/20 12:00:47;;;;;;;15.07;2.50;;;;;;;;;;4941016;28;20036;-90
2022/12/20 12:03:20;;;;;;;19.13;2.42;;;;;;;;;;4948392;28;20543;-90
2022/12/20 12:05:57;;;;;;;16.27;2.70;;;;;;;;;;4949379;28;20046;-90
2022/12/20 12:08:35;;;;;;;15.43;2.00;;;;;;;;;;4942920;29;20043;-89
2022/12/20 12:11:21;;;;;;;19.95;2.80;;;;;;;;;;4949957;28;20503;-91
2022/12/20 12:13:47;;;;;;;18.10;2.50;;;;;;;;;;4955967;28;20036;-90
2022/12/20 12:16:19;;;;;;;18.48;2.72;;;;;;;;;;4946495;29;20031;-91
2022/12/20 12:18:44;;;;;;;17.73;2.80;;;;;;;;;;4936665;29;20023;-91
2022/12/20 12:21:29;;;;;;;16.75;2.85;;;;;;;;;;4935921;29;20077;-91
2022/12/20 12:24:03;;;;;;;14.80;2.20;;;;;;;;;;4937806;29;20073;-92
2022/12/20 12:26:33;;;;;;;14.93;2.25;;;;;;;;;;4942973;29;20475;-91
2022/12/20 12:29:19;;;;;;;17.17;2.45;;;;;;;;;;4937744;28;20038;-92
2022/12/20 12:31:48;;;;;;;15.15;2.78;;;;;;;;;;4938544;29;20045;-89
2022/12/20 12:34:43;;;;;;;21.67;2.67;;;;;;;;;;4944465;29;20031;-93
2022/12/20 12:37:25;;;;;;;13.18;2.28;;;;;;;;;;4944179;29;20028;-90
2022/12/20 12:40:09;;;;;;;13.13;2.20;;;;;;;;;;4940848;28;20023;-92
2022/12/20 12:42:59;;;;;;;14.95;2.45;;;;;;;;;;4934556;29;20015;-94
2022/12/20 12:45:40;;;;;;;13.40;2.30;;;;;;;;;;4942132;29;20024;-90
2022/12/20 12:48:18;;;;;;;19.33;2.30;;;;;;;;;;4959144;28;20034;-93
2022/12/20 12:50:48;;;;;;;12.10;2.33;;;;;;;;;;4942575;28;20027;-92
2022/12/20 12:53:20;;;;;;;11.27;1.70;;;;;;;;;;4944327;29;20023;-93
2022/12/20 12:55:48;;;;;;;14.13;2.30;;;;;;;;;;4942481;29;20118;-93
2022/12/20 12:58:22;;;;;;;13.55;2.00;;;;;;;;;;4935328;29;20070;-94
2022/12/20 13:00:59;;;;;;;14.90;2.47;;;;;;;;;;4945422;29;20122;-94
2022/12/20 13:03:37;;;;;;;15.30;2.35;;;;;;;;;;4946670;28;20055;-93
2022/12/20 13:06:32;;;;;;;;;;;;;;;;;;;;;
2022/12/20 13:08:58;;;;;;;18.77;2.90;;;;;;;;;;4937237;29;20046;-94
2022/12/20 13:11:31;;;;;;;18.55;2.85;;;;;;;;;;4951070;29;20032;-94
2022/12/20 13:14:15;;;;;;;18.50;3.40;;;;;;;;;;4950956;28;20367;-94
2022/12/20 13:16:40;;;;;;;13.98;2.45;;;;;;;;;;4950018;28;20137;-94
2022/12/20 13:19:29;;;;;;;20.73;2.83;;;;;;;;;;4949225;29;20063;-93
2022/12/20 13:22:15;;;;;;;11.55;2.10;;;;;;;;;;4937521;29;20487;-94
2022/12/20 13:25:02;;;;;;;14.40;2.25;;;;;;;;;;4947542;29;20087;-93
2022/12/20 13:27:34;;;;;;;20.90;2.25;;;;;;;;;;4948084;29;20031;-92
2022/12/20 13:30:11;;;;;;;19.52;2.42;;;;;;;;;;4950286;29;20039;-95
2022/12/20 13:32:56;;;;;;;16.92;2.80;;;;;;;;;;4949786;29;20038;-93
2022/12/20 13:35:24;;;;;;;17.50;3.05;;;;;;;;;;4948946;29;20023;-94
2022/12/20 13:38:13;;;;;;;12.20;1.83;;;;;;;;;;4946628;29;20031;-94
2022/12/20 13:40:46;;;;;;;20.15;2.75;;;;;;;;;;4917087;29;20043;-93
2022/12/20 13:43:18;;;;;;;17.13;2.47;;;;;;;;;;4947373;29;20050;-92
2022/12/20 13:45:45;;;;;;;18.52;3.53;;;;;;;;;;4945901;29;20058;-95
2022/12/20 13:48:13;;;;;;;21.40;2.30;;;;;;;;;;4935558;29;20116;-91
2022/12/20 13:50:57;;;;;;;14.82;1.92;;;;;;;;;;4936871;29;20030;-92
2022/12/20 13:53:26;;;;;;;14.77;2.35;;;;;;;;;;4944464;29;20035;-92
2022/12/20 13:56:01;;;;;;;13.50;2.03;;;;;;;;;;4943746;28;20028;-93
2022/12/20 13:58:35;;;;;;;15.02;2.30;;;;;;;;;;4955081;28;20019;-94
2022/12/20 14:01:10;;;;;;;18.98;2.70;;;;;;;;;;4940352;28;20026;-93
2022/12/20 14:03:40;;;;;;;17.45;2.05;;;;;;;;;;4949184;28;20800;-93
2022/12/20 14:06:09;;;;;;;17.52;2.40;;;;;;;;;;4943312;28;20037;-95
2022/12/20 14:09:23;;;;;;;;;;;;;;;;;;;;;
2022/12/20 14:11:45;;;;;;;16.02;2.70;;;;;;;;;;4958731;28;20047;-95
2022/12/20 14:14:11;;;;;;;15.50;2.03;;;;;;;;;;4953472;28;20086;-94
2022/12/20 14:16:37;;;;;;;18.05;2.45;;;;;;;;;;4945051;28;20039;-92
2022/12/20 14:19:03;;;;;;;13.80;2.80;;;;;;;;;;4945801;28;20035;-92
2022/12/20 14:21:29;;;;;;;16.88;2.45;;;;;;;;;;4951408;28;20271;-92
2022/12/20 14:23:56;;;;;;;13.60;2.33;;;;;;;;;;4949823;28;20537;-93
2022/12/20 14:26:24;;;;;;;13.27;1.92;;;;;;;;;;4953281;28;20063;-91
2022/12/20 14:28:50;;;;;;;15.80;2.17;;;;;;;;;;4949593;28;20027;-91
2022/12/20 14:31:31;;;;;;;14.35;2.42;;;;;;;;;;4946508;28;20050;-90
2022/12/20 14:34:06;;;;;;;20.60;2.40;;;;;;;;;;4943423;28;20046;-94
2022/12/20 14:36:47;;;;;;;12.20;2.30;;;;;;;;;;4943604;28;20126;-93
2022/12/20 14:39:22;;;;;;;14.93;1.98;;;;;;;;;;4944226;28;20035;-94
2022/12/20 14:41:53;;;;;;;18.38;2.55;;;;;;;;;;4944687;28;20027;-92
2022/12/20 14:44:20;;;;;;;18.33;2.33;;;;;;;;;;4947810;28;20114;-93
2022/12/20 14:47:03;;;;;;;12.68;1.95;;;;;;;;;;4945257;28;20043;-92
2022/12/20 14:49:30;;;;;;;17.13;2.15;;;;;;;;;;4949303;28;20023;-93
2022/12/20 14:52:10;;;;;;;20.55;2.45;;;;;;;;;;4947010;28;20027;-95
2022/12/20 14:54:54;;;;;;;13.40;2.38;;;;;;;;;;4949552;28;20023;-94
2022/12/20 14:57:35;;;;;;;13.10;2.40;;;;;;;;;;4943428;28;20510;-93
2022/12/20 15:00:12;;;;;;;10.43;1.83;;;;;;;;;;4943522;28;20125;-94
2022/12/20 15:02:56;;;;;;;14.75;1.83;;;;;;;;;;4946453;28;20480;-93
2022/12/20 15:05:34;;;;;;;12.32;1.90;;;;;;;;;;4943997;28;20028;-96
2022/12/20 15:08:17;;;;;;;14.63;2.53;;;;;;;;;;4947368;29;20031;-94
2022/12/20 15:10:53;;;;;;;13.60;1.77;;;;;;;;;;4939152;29;21211;-95